sensor_id;sensor_type;location;lat;lon;timestamp;temperature;humidity
11107;DHT22;5607;48.302;14.294;2022-12-07T00:02:22;5.60;5.50
11107;DHT22;5607;48.302;14.294;2022-12-07T00:05:09;5.60;12.50
11107;DHT22;5607;48.302;14.294;2022-12-07T00:07:55;5.50;15.60
11107;DHT22;5607;48.302;14.294;2022-12-07T00:10:41;5.40;25.20
11107;DHT22;5607;48.302;14.294;2022-12-07T00:13:29;5.30;42.40
11107;DHT22;5607;48.302;14.294;2022-12-07T00:16:15;5.20;50.00
11107;DHT22;5607;48.302;14.294;2022-12-07T00:19:02;5.20;57.40
11107;DHT22;5607;48.302;14.294;2022-12-07T00:21:49;5.20;65.70
11107;DHT22;5607;48.302;14.294;2022-12-07T00:24:35;5.20;67.60
11107;DHT22;5607;48.302;14.294;2022-12-07T00:27:21;5.20;58.60
11107;DHT22;5607;48.302;14.294;2022-12-07T00:30:08;5.10;67.20
11107;DHT22;5607;48.302;14.294;2022-12-07T00:32:54;5.10;76.40
11107;DHT22;5607;48.302;14.294;2022-12-07T00:35:40;5.10;68.80
11107;DHT22;5607;48.302;14.294;2022-12-07T00:38:27;5.00;73.40
11107;DHT22;5607;48.302;14.294;2022-12-07T00:41:15;5.20;84.80
11107;DHT22;5607;48.302;14.294;2022-12-07T00:44:02;5.30;81.20
11107;DHT22;5607;48.302;14.294;2022-12-07T00:46:48;5.40;65.90
11107;DHT22;5607;48.302;14.294;2022-12-07T00:49:34;5.50;53.70
11107;DHT22;5607;48.302;14.294;2022-12-07T00:52:21;5.50;36.40
11107;DHT22;5607;48.302;14.294;2022-12-07T00:55:07;5.50;31.20
11107;DHT22;5607;48.302;14.294;2022-12-07T00:57:53;5.40;29.10
11107;DHT22;5607;48.302;14.294;2022-12-07T01:00:41;5.50;37.90
11107;DHT22;5607;48.302;14.294;2022-12-07T01:03:27;5.50;33.60
11107;DHT22;5607;48.302;14.294;2022-12-07T01:06:17;5.50;35.70
11107;DHT22;5607;48.302;14.294;2022-12-07T01:09:04;5.60;37.10
11107;DHT22;5607;48.302;14.294;2022-12-07T01:11:52;5.60;20.00
11107;DHT22;5607;48.302;14.294;2022-12-07T01:14:38;5.50;18.60
11107;DHT22;5607;48.302;14.294;2022-12-07T01:17:24;5.60;21.60
11107;DHT22;5607;48.302;14.294;2022-12-07T01:20:11;5.60;13.10
11107;DHT22;5607;48.302;14.294;2022-12-07T01:22:57;5.60;14.50
11107;DHT22;5607;48.302;14.294;2022-12-07T01:25:43;5.50;15.10
11107;DHT22;5607;48.302;14.294;2022-12-07T01:28:31;5.50;18.90
11107;DHT22;5607;48.302;14.294;2022-12-07T01:31:19;5.50;21.50
11107;DHT22;5607;48.302;14.294;2022-12-07T01:34:05;5.60;27.20
11107;DHT22;5607;48.302;14.294;2022-12-07T01:36:51;5.60;22.80
11107;DHT22;5607;48.302;14.294;2022-12-07T01:39:38;5.60;20.30
11107;DHT22;5607;48.302;14.294;2022-12-07T01:42:24;5.60;17.30
11107;DHT22;5607;48.302;14.294;2022-12-07T01:48:16;5.70;12.80
11107;DHT22;5607;48.302;14.294;2022-12-07T01:51:06;5.70;14.70
11107;DHT22;5607;48.302;14.294;2022-12-07T01:53:54;5.70;13.40
11107;DHT22;5607;48.302;14.294;2022-12-07T01:56:41;5.70;9.70
11107;DHT22;5607;48.302;14.294;2022-12-07T01:59:30;5.70;8.70
11107;DHT22;5607;48.302;14.294;2022-12-07T02:02:20;5.70;7.20
11107;DHT22;5607;48.302;14.294;2022-12-07T02:05:08;5.60;7.40
11107;DHT22;5607;48.302;14.294;2022-12-07T02:07:55;5.60;10.60
11107;DHT22;5607;48.302;14.294;2022-12-07T02:10:41;5.60;10.30
11107;DHT22;5607;48.302;14.294;2022-12-07T02:13:29;5.60;6.00
11107;DHT22;5607;48.302;14.294;2022-12-07T02:21:53;5.50;1.50
11107;DHT22;5607;48.302;14.294;2022-12-07T02:27:50;5.60;4.90
11107;DHT22;5607;48.302;14.294;2022-12-07T02:30:40;5.60;1.00
11107;DHT22;5607;48.302;14.294;2022-12-07T02:33:29;5.70;1.00
11107;DHT22;5607;48.302;14.294;2022-12-07T02:36:20;5.70;1.00
11107;DHT22;5607;48.302;14.294;2022-12-07T02:42:33;5.70;1.00
11107;DHT22;5607;48.302;14.294;2022-12-07T02:45:21;5.50;1.00
11107;DHT22;5607;48.302;14.294;2022-12-07T02:48:08;5.40;1.00
11107;DHT22;5607;48.302;14.294;2022-12-07T02:50:56;5.40;1.00
11107;DHT22;5607;48.302;14.294;2022-12-07T02:53:42;5.30;3.10
11107;DHT22;5607;48.302;14.294;2022-12-07T02:56:45;5.20;8.60
11107;DHT22;5607;48.302;14.294;2022-12-07T03:02:50;5.00;12.90
11107;DHT22;5607;48.302;14.294;2022-12-07T03:08:47;5.00;21.30
11107;DHT22;5607;48.302;14.294;2022-12-07T03:11:40;5.00;18.40
11107;DHT22;5607;48.302;14.294;2022-12-07T03:14:30;5.00;18.00
11107;DHT22;5607;48.302;14.294;2022-12-07T03:17:25;5.00;19.00
11107;DHT22;5607;48.302;14.294;2022-12-07T03:20:13;5.00;17.80
11107;DHT22;5607;48.302;14.294;2022-12-07T03:23:02;5.10;18.90
11107;DHT22;5607;48.302;14.294;2022-12-07T03:25:52;5.20;15.00
11107;DHT22;5607;48.302;14.294;2022-12-07T03:28:41;5.40;17.50
11107;DHT22;5607;48.302;14.294;2022-12-07T03:31:29;5.30;3.70
11107;DHT22;5607;48.302;14.294;2022-12-07T03:43:14;4.90;14.60
11107;DHT22;5607;48.302;14.294;2022-12-07T03:52:16;4.80;21.10
11107;DHT22;5607;48.302;14.294;2022-12-07T03:57:59;4.80;31.20
11107;DHT22;5607;48.302;14.294;2022-12-07T04:00:46;4.90;27.90
11107;DHT22;5607;48.302;14.294;2022-12-07T04:03:32;5.00;28.60
11107;DHT22;5607;48.302;14.294;2022-12-07T04:06:18;5.10;18.20
11107;DHT22;5607;48.302;14.294;2022-12-07T04:09:05;5.20;7.70
11107;DHT22;5607;48.302;14.294;2022-12-07T04:11:51;5.20;1.00
11107;DHT22;5607;48.302;14.294;2022-12-07T04:14:37;5.30;1.00
11107;DHT22;5607;48.302;14.294;2022-12-07T04:17:23;5.10;1.00
11107;DHT22;5607;48.302;14.294;2022-12-07T04:20:10;5.10;1.00
11107;DHT22;5607;48.302;14.294;2022-12-07T04:26:20;5.20;1.00
11107;DHT22;5607;48.302;14.294;2022-12-07T04:29:06;5.00;1.00
11107;DHT22;5607;48.302;14.294;2022-12-07T04:31:53;5.00;1.00
11107;DHT22;5607;48.302;14.294;2022-12-07T04:34:39;5.10;1.00
11107;DHT22;5607;48.302;14.294;2022-12-07T04:37:26;5.10;1.00
11107;DHT22;5607;48.302;14.294;2022-12-07T04:40:12;5.00;1.00
11107;DHT22;5607;48.302;14.294;2022-12-07T04:43:00;5.00;1.00
11107;DHT22;5607;48.302;14.294;2022-12-07T04:45:46;5.00;1.00
11107;DHT22;5607;48.302;14.294;2022-12-07T04:48:33;4.80;1.00
11107;DHT22;5607;48.302;14.294;2022-12-07T04:51:20;4.80;1.00
11107;DHT22;5607;48.302;14.294;2022-12-07T04:54:07;4.70;1.50
11107;DHT22;5607;48.302;14.294;2022-12-07T04:56:53;4.60;14.80
11107;DHT22;5607;48.302;14.294;2022-12-07T04:59:40;4.70;19.50
11107;DHT22;5607;48.302;14.294;2022-12-07T05:02:26;4.70;6.50
11107;DHT22;5607;48.302;14.294;2022-12-07T05:05:12;4.70;10.40
11107;DHT22;5607;48.302;14.294;2022-12-07T05:07:58;4.80;9.10
11107;DHT22;5607;48.302;14.294;2022-12-07T05:10:44;4.80;1.00
11107;DHT22;5607;48.302;14.294;2022-12-07T05:13:31;4.80;2.20
11107;DHT22;5607;48.302;14.294;2022-12-07T05:16:18;4.70;1.00
11107;DHT22;5607;48.302;14.294;2022-12-07T05:19:04;4.70;6.60
11107;DHT22;5607;48.302;14.294;2022-12-07T05:21:51;4.80;1.00
11107;DHT22;5607;48.302;14.294;2022-12-07T05:24:37;4.70;1.00
11107;DHT22;5607;48.302;14.294;2022-12-07T05:27:23;4.80;4.10
11107;DHT22;5607;48.302;14.294;2022-12-07T05:30:10;4.80;1.00
11107;DHT22;5607;48.302;14.294;2022-12-07T05:32:56;4.90;1.00
11107;DHT22;5607;48.302;14.294;2022-12-07T05:35:42;4.80;1.00
11107;DHT22;5607;48.302;14.294;2022-12-07T05:38:29;4.80;1.00
11107;DHT22;5607;48.302;14.294;2022-12-07T05:41:16;4.90;1.00
11107;DHT22;5607;48.302;14.294;2022-12-07T05:44:21;4.80;1.00
11107;DHT22;5607;48.302;14.294;2022-12-07T05:47:07;4.70;1.00
11107;DHT22;5607;48.302;14.294;2022-12-07T05:49:54;4.70;1.00
11107;DHT22;5607;48.302;14.294;2022-12-07T05:52:40;4.60;1.00
11107;DHT22;5607;48.302;14.294;2022-12-07T05:55:27;4.60;1.00
11107;DHT22;5607;48.302;14.294;2022-12-07T05:58:13;4.60;1.00
11107;DHT22;5607;48.302;14.294;2022-12-07T06:01:18;4.70;1.00
11107;DHT22;5607;48.302;14.294;2022-12-07T06:04:04;4.60;1.00
11107;DHT22;5607;48.302;14.294;2022-12-07T06:06:50;4.50;1.00
11107;DHT22;5607;48.302;14.294;2022-12-07T06:09:37;4.50;1.00
11107;DHT22;5607;48.302;14.294;2022-12-07T06:12:23;4.60;1.00
11107;DHT22;5607;48.302;14.294;2022-12-07T06:15:24;4.60;1.00
11107;DHT22;5607;48.302;14.294;2022-12-07T06:18:10;4.60;1.00
11107;DHT22;5607;48.302;14.294;2022-12-07T06:20:56;4.70;1.00
11107;DHT22;5607;48.302;14.294;2022-12-07T06:23:43;4.60;1.00
11107;DHT22;5607;48.302;14.294;2022-12-07T06:26:29;4.60;1.00
11107;DHT22;5607;48.302;14.294;2022-12-07T06:29:15;4.70;1.00
11107;DHT22;5607;48.302;14.294;2022-12-07T06:32:02;4.80;1.00
11107;DHT22;5607;48.302;14.294;2022-12-07T06:34:48;4.70;1.00
11107;DHT22;5607;48.302;14.294;2022-12-07T06:37:34;4.70;1.00
11107;DHT22;5607;48.302;14.294;2022-12-07T06:40:21;4.70;1.00
11107;DHT22;5607;48.302;14.294;2022-12-07T06:43:07;4.80;1.00
11107;DHT22;5607;48.302;14.294;2022-12-07T06:45:53;4.90;1.00
11107;DHT22;5607;48.302;14.294;2022-12-07T06:48:40;4.90;1.00
11107;DHT22;5607;48.302;14.294;2022-12-07T06:51:27;4.80;1.00
11107;DHT22;5607;48.302;14.294;2022-12-07T06:54:13;4.90;1.00
11107;DHT22;5607;48.302;14.294;2022-12-07T06:57:00;5.00;1.00
11107;DHT22;5607;48.302;14.294;2022-12-07T06:59:46;5.10;1.00
11107;DHT22;5607;48.302;14.294;2022-12-07T07:02:33;5.10;1.00
11107;DHT22;5607;48.302;14.294;2022-12-07T07:05:19;5.10;1.00
11107;DHT22;5607;48.302;14.294;2022-12-07T07:08:08;5.20;1.00
11107;DHT22;5607;48.302;14.294;2022-12-07T07:10:54;4.90;1.00
11107;DHT22;5607;48.302;14.294;2022-12-07T07:13:40;4.90;1.00
11107;DHT22;5607;48.302;14.294;2022-12-07T07:16:27;5.00;1.00
11107;DHT22;5607;48.302;14.294;2022-12-07T07:19:13;5.00;1.00
11107;DHT22;5607;48.302;14.294;2022-12-07T07:22:00;5.00;1.00
11107;DHT22;5607;48.302;14.294;2022-12-07T07:24:46;5.10;1.00
11107;DHT22;5607;48.302;14.294;2022-12-07T07:27:32;5.10;1.00
11107;DHT22;5607;48.302;14.294;2022-12-07T07:30:19;5.20;1.00
11107;DHT22;5607;48.302;14.294;2022-12-07T07:33:05;5.30;1.00
11107;DHT22;5607;48.302;14.294;2022-12-07T07:35:51;5.20;1.00
11107;DHT22;5607;48.302;14.294;2022-12-07T07:38:38;5.10;1.00
11107;DHT22;5607;48.302;14.294;2022-12-07T07:41:24;5.00;1.00
11107;DHT22;5607;48.302;14.294;2022-12-07T07:44:10;5.00;1.00
11107;DHT22;5607;48.302;14.294;2022-12-07T07:46:56;5.00;1.00
11107;DHT22;5607;48.302;14.294;2022-12-07T07:49:43;5.00;1.00
11107;DHT22;5607;48.302;14.294;2022-12-07T07:52:30;5.20;1.00
11107;DHT22;5607;48.302;14.294;2022-12-07T07:55:17;5.40;1.00
11107;DHT22;5607;48.302;14.294;2022-12-07T07:58:03;5.50;1.00
11107;DHT22;5607;48.302;14.294;2022-12-07T08:00:49;5.50;1.00
11107;DHT22;5607;48.302;14.294;2022-12-07T08:03:36;5.40;1.00
11107;DHT22;5607;48.302;14.294;2022-12-07T08:06:22;5.30;1.00
11107;DHT22;5607;48.302;14.294;2022-12-07T08:09:08;5.20;1.00
11107;DHT22;5607;48.302;14.294;2022-12-07T08:11:55;5.30;1.00
11107;DHT22;5607;48.302;14.294;2022-12-07T08:14:41;5.40;1.00
11107;DHT22;5607;48.302;14.294;2022-12-07T08:17:27;5.60;1.00
11107;DHT22;5607;48.302;14.294;2022-12-07T08:20:14;5.60;1.00
11107;DHT22;5607;48.302;14.294;2022-12-07T08:23:00;5.60;1.00
11107;DHT22;5607;48.302;14.294;2022-12-07T08:25:46;5.70;1.00
11107;DHT22;5607;48.302;14.294;2022-12-07T08:28:32;5.70;1.00
11107;DHT22;5607;48.302;14.294;2022-12-07T08:31:19;5.70;1.00
11107;DHT22;5607;48.302;14.294;2022-12-07T08:34:05;5.70;1.00
11107;DHT22;5607;48.302;14.294;2022-12-07T08:36:51;5.80;1.00
11107;DHT22;5607;48.302;14.294;2022-12-07T08:39:37;5.80;1.00
11107;DHT22;5607;48.302;14.294;2022-12-07T08:42:23;5.60;1.00
11107;DHT22;5607;48.302;14.294;2022-12-07T08:45:13;5.50;1.00
11107;DHT22;5607;48.302;14.294;2022-12-07T08:48:04;5.50;1.00
11107;DHT22;5607;48.302;14.294;2022-12-07T08:50:52;5.40;1.00
11107;DHT22;5607;48.302;14.294;2022-12-07T08:53:38;5.40;1.00
11107;DHT22;5607;48.302;14.294;2022-12-07T08:56:25;5.40;1.00
11107;DHT22;5607;48.302;14.294;2022-12-07T08:59:12;5.40;1.00
11107;DHT22;5607;48.302;14.294;2022-12-07T09:02:00;5.60;1.00
11107;DHT22;5607;48.302;14.294;2022-12-07T09:04:46;5.60;1.00
11107;DHT22;5607;48.302;14.294;2022-12-07T09:07:33;5.70;1.00
11107;DHT22;5607;48.302;14.294;2022-12-07T09:10:19;5.50;1.00
11107;DHT22;5607;48.302;14.294;2022-12-07T09:13:06;5.40;1.00
11107;DHT22;5607;48.302;14.294;2022-12-07T09:15:52;5.30;1.00
11107;DHT22;5607;48.302;14.294;2022-12-07T09:18:38;5.30;1.00
11107;DHT22;5607;48.302;14.294;2022-12-07T09:21:24;5.40;1.00
11107;DHT22;5607;48.302;14.294;2022-12-07T09:24:11;5.40;1.00
11107;DHT22;5607;48.302;14.294;2022-12-07T09:26:58;5.50;1.00
11107;DHT22;5607;48.302;14.294;2022-12-07T09:29:44;5.50;1.00
11107;DHT22;5607;48.302;14.294;2022-12-07T09:32:30;5.50;1.00
11107;DHT22;5607;48.302;14.294;2022-12-07T09:35:16;5.60;1.00
11107;DHT22;5607;48.302;14.294;2022-12-07T09:38:02;5.60;1.00
11107;DHT22;5607;48.302;14.294;2022-12-07T09:40:49;5.50;1.00
11107;DHT22;5607;48.302;14.294;2022-12-07T09:43:35;5.40;1.00
11107;DHT22;5607;48.302;14.294;2022-12-07T09:46:22;5.50;1.00
11107;DHT22;5607;48.302;14.294;2022-12-07T09:49:12;5.60;1.00
11107;DHT22;5607;48.302;14.294;2022-12-07T09:52:20;5.70;1.00
11107;DHT22;5607;48.302;14.294;2022-12-07T09:55:10;5.80;1.00
11107;DHT22;5607;48.302;14.294;2022-12-07T09:57:57;5.80;1.00
11107;DHT22;5607;48.302;14.294;2022-12-07T10:00:43;5.90;1.00
11107;DHT22;5607;48.302;14.294;2022-12-07T10:03:29;6.00;1.00
11107;DHT22;5607;48.302;14.294;2022-12-07T10:06:16;6.20;1.00
11107;DHT22;5607;48.302;14.294;2022-12-07T10:09:07;6.30;1.00
11107;DHT22;5607;48.302;14.294;2022-12-07T10:11:57;6.30;1.00
11107;DHT22;5607;48.302;14.294;2022-12-07T10:18:00;6.20;1.00
11107;DHT22;5607;48.302;14.294;2022-12-07T10:20:47;6.20;1.00
11107;DHT22;5607;48.302;14.294;2022-12-07T10:23:34;6.20;1.00
11107;DHT22;5607;48.302;14.294;2022-12-07T10:29:23;5.80;1.00
11107;DHT22;5607;48.302;14.294;2022-12-07T10:38:18;5.30;1.00
11107;DHT22;5607;48.302;14.294;2022-12-07T10:41:07;5.50;1.00
11107;DHT22;5607;48.302;14.294;2022-12-07T10:43:55;5.60;1.00
11107;DHT22;5607;48.302;14.294;2022-12-07T10:47:24;5.80;1.00
11107;DHT22;5607;48.302;14.294;2022-12-07T10:56:01;5.90;1.00
11107;DHT22;5607;48.302;14.294;2022-12-07T10:59:02;5.90;1.00
11107;DHT22;5607;48.302;14.294;2022-12-07T11:01:57;5.80;1.00
11107;DHT22;5607;48.302;14.294;2022-12-07T11:05:02;6.00;1.00
11107;DHT22;5607;48.302;14.294;2022-12-07T11:10:44;5.60;1.00
11107;DHT22;5607;48.302;14.294;2022-12-07T11:13:37;5.80;1.00
11107;DHT22;5607;48.302;14.294;2022-12-07T11:19:28;6.10;1.00
11107;DHT22;5607;48.302;14.294;2022-12-07T11:28:11;6.30;99.90
11107;DHT22;5607;48.302;14.294;2022-12-07T11:31:04;6.30;99.90
11107;DHT22;5607;48.302;14.294;2022-12-07T11:36:45;5.90;99.90
11107;DHT22;5607;48.302;14.294;2022-12-07T11:42:22;6.10;99.90
11107;DHT22;5607;48.302;14.294;2022-12-07T11:45:14;6.00;99.90
11107;DHT22;5607;48.302;14.294;2022-12-07T11:50:50;6.40;99.90
11107;DHT22;5607;48.302;14.294;2022-12-07T11:53:38;6.40;99.90
11107;DHT22;5607;48.302;14.294;2022-12-07T11:56:26;6.30;99.90
11107;DHT22;5607;48.302;14.294;2022-12-07T11:59:16;6.50;99.90
11107;DHT22;5607;48.302;14.294;2022-12-07T12:05:01;6.50;99.90
11107;DHT22;5607;48.302;14.294;2022-12-07T12:07:50;6.80;99.90
11107;DHT22;5607;48.302;14.294;2022-12-07T12:10:41;6.60;99.90
11107;DHT22;5607;48.302;14.294;2022-12-07T12:22:18;6.70;99.90
11107;DHT22;5607;48.302;14.294;2022-12-07T12:25:06;6.90;99.90
11107;DHT22;5607;48.302;14.294;2022-12-07T12:27:54;6.90;99.90
11107;DHT22;5607;48.302;14.294;2022-12-07T12:30:42;6.80;99.90
11107;DHT22;5607;48.302;14.294;2022-12-07T12:33:28;6.90;99.90
11107;DHT22;5607;48.302;14.294;2022-12-07T12:42:00;7.10;99.90
11107;DHT22;5607;48.302;14.294;2022-12-07T12:45:03;6.90;99.90
11107;DHT22;5607;48.302;14.294;2022-12-07T12:48:03;6.90;99.90
11107;DHT22;5607;48.302;14.294;2022-12-07T12:50:49;7.00;99.90
11107;DHT22;5607;48.302;14.294;2022-12-07T12:54:03;6.70;99.90
11107;DHT22;5607;48.302;14.294;2022-12-07T12:59:57;6.80;99.90
11107;DHT22;5607;48.302;14.294;2022-12-07T13:02:52;6.90;99.90
11107;DHT22;5607;48.302;14.294;2022-12-07T13:05:39;6.80;99.90
11107;DHT22;5607;48.302;14.294;2022-12-07T13:08:25;6.60;99.90
11107;DHT22;5607;48.302;14.294;2022-12-07T13:17:12;6.50;99.90
11107;DHT22;5607;48.302;14.294;2022-12-07T13:20:39;6.40;99.90
11107;DHT22;5607;48.302;14.294;2022-12-07T13:23:25;6.70;99.90
11107;DHT22;5607;48.302;14.294;2022-12-07T13:26:17;6.70;99.90
11107;DHT22;5607;48.302;14.294;2022-12-07T13:29:11;6.80;99.90
11107;DHT22;5607;48.302;14.294;2022-12-07T13:31:57;6.50;99.90
11107;DHT22;5607;48.302;14.294;2022-12-07T13:34:44;6.30;99.90
11107;DHT22;5607;48.302;14.294;2022-12-07T13:37:32;6.10;99.90
11107;DHT22;5607;48.302;14.294;2022-12-07T13:40:19;6.20;99.90
11107;DHT22;5607;48.302;14.294;2022-12-07T13:43:11;6.40;99.90
11107;DHT22;5607;48.302;14.294;2022-12-07T13:45:59;6.30;99.90
11107;DHT22;5607;48.302;14.294;2022-12-07T13:48:47;6.30;99.90
11107;DHT22;5607;48.302;14.294;2022-12-07T13:51:34;6.50;99.90
11107;DHT22;5607;48.302;14.294;2022-12-07T13:54:20;6.60;99.90
11107;DHT22;5607;48.302;14.294;2022-12-07T13:57:07;6.70;99.90
11107;DHT22;5607;48.302;14.294;2022-12-07T13:59:53;6.80;99.90
11107;DHT22;5607;48.302;14.294;2022-12-07T14:02:54;6.90;99.90
11107;DHT22;5607;48.302;14.294;2022-12-07T14:05:41;6.80;99.90
11107;DHT22;5607;48.302;14.294;2022-12-07T14:08:29;6.70;99.90
11107;DHT22;5607;48.302;14.294;2022-12-07T14:11:19;6.60;99.90
11107;DHT22;5607;48.302;14.294;2022-12-07T14:14:06;6.50;99.90
11107;DHT22;5607;48.302;14.294;2022-12-07T14:17:01;6.40;99.90
11107;DHT22;5607;48.302;14.294;2022-12-07T14:22:36;6.50;99.90
11107;DHT22;5607;48.302;14.294;2022-12-07T14:25:23;6.60;99.90
11107;DHT22;5607;48.302;14.294;2022-12-07T14:28:24;6.60;99.90
11107;DHT22;5607;48.302;14.294;2022-12-07T14:31:12;6.50;99.90
11107;DHT22;5607;48.302;14.294;2022-12-07T14:33:59;6.50;99.90
11107;DHT22;5607;48.302;14.294;2022-12-07T14:36:45;6.50;99.90
11107;DHT22;5607;48.302;14.294;2022-12-07T14:39:31;6.60;99.90
11107;DHT22;5607;48.302;14.294;2022-12-07T14:42:18;6.50;99.90
11107;DHT22;5607;48.302;14.294;2022-12-07T14:45:05;6.50;99.90
11107;DHT22;5607;48.302;14.294;2022-12-07T14:47:51;6.50;99.90
11107;DHT22;5607;48.302;14.294;2022-12-07T14:50:39;6.50;99.90
11107;DHT22;5607;48.302;14.294;2022-12-07T14:53:46;6.50;99.90
11107;DHT22;5607;48.302;14.294;2022-12-07T14:56:34;6.50;99.90
11107;DHT22;5607;48.302;14.294;2022-12-07T14:59:20;6.40;99.90
11107;DHT22;5607;48.302;14.294;2022-12-07T15:02:06;6.40;99.90
11107;DHT22;5607;48.302;14.294;2022-12-07T15:04:55;6.30;99.90
11107;DHT22;5607;48.302;14.294;2022-12-07T15:07:41;6.40;99.90
11107;DHT22;5607;48.302;14.294;2022-12-07T15:10:29;6.40;99.90
11107;DHT22;5607;48.302;14.294;2022-12-07T15:13:17;6.40;99.90
11107;DHT22;5607;48.302;14.294;2022-12-07T15:16:22;6.40;99.90
11107;DHT22;5607;48.302;14.294;2022-12-07T15:19:12;6.30;99.90
11107;DHT22;5607;48.302;14.294;2022-12-07T15:21:58;6.30;99.90
11107;DHT22;5607;48.302;14.294;2022-12-07T15:24:45;6.30;99.90
11107;DHT22;5607;48.302;14.294;2022-12-07T15:27:32;6.20;99.90
11107;DHT22;5607;48.302;14.294;2022-12-07T15:30:18;6.20;99.90
11107;DHT22;5607;48.302;14.294;2022-12-07T15:33:04;6.20;99.90
11107;DHT22;5607;48.302;14.294;2022-12-07T15:35:50;6.00;99.90
11107;DHT22;5607;48.302;14.294;2022-12-07T15:38:37;6.00;99.90
11107;DHT22;5607;48.302;14.294;2022-12-07T15:41:23;5.90;99.90
11107;DHT22;5607;48.302;14.294;2022-12-07T15:44:13;5.80;99.90
11107;DHT22;5607;48.302;14.294;2022-12-07T15:47:18;5.80;99.90
11107;DHT22;5607;48.302;14.294;2022-12-07T15:50:05;5.80;99.90
11107;DHT22;5607;48.302;14.294;2022-12-07T15:52:51;5.80;99.90
11107;DHT22;5607;48.302;14.294;2022-12-07T15:55:41;5.80;99.90
11107;DHT22;5607;48.302;14.294;2022-12-07T15:58:27;5.80;99.90
11107;DHT22;5607;48.302;14.294;2022-12-07T16:01:14;5.80;99.90
11107;DHT22;5607;48.302;14.294;2022-12-07T16:04:00;5.80;99.90
11107;DHT22;5607;48.302;14.294;2022-12-07T16:06:47;5.80;99.90
11107;DHT22;5607;48.302;14.294;2022-12-07T16:09:33;5.80;99.90
11107;DHT22;5607;48.302;14.294;2022-12-07T16:12:19;5.80;99.90
11107;DHT22;5607;48.302;14.294;2022-12-07T16:15:05;5.80;99.90
11107;DHT22;5607;48.302;14.294;2022-12-07T16:17:52;5.90;1.00
11107;DHT22;5607;48.302;14.294;2022-12-07T16:20:38;5.90;1.00
11107;DHT22;5607;48.302;14.294;2022-12-07T16:23:25;6.00;99.90
11107;DHT22;5607;48.302;14.294;2022-12-07T16:26:12;6.00;99.90
11107;DHT22;5607;48.302;14.294;2022-12-07T16:28:59;6.00;99.90
11107;DHT22;5607;48.302;14.294;2022-12-07T16:31:46;6.00;99.90
11107;DHT22;5607;48.302;14.294;2022-12-07T16:34:32;6.10;99.90
11107;DHT22;5607;48.302;14.294;2022-12-07T16:37:18;6.10;99.90
11107;DHT22;5607;48.302;14.294;2022-12-07T16:40:04;6.00;99.90
11107;DHT22;5607;48.302;14.294;2022-12-07T16:42:51;6.00;99.90
11107;DHT22;5607;48.302;14.294;2022-12-07T16:45:37;6.00;99.90
11107;DHT22;5607;48.302;14.294;2022-12-07T16:48:25;5.80;99.90
11107;DHT22;5607;48.302;14.294;2022-12-07T16:51:12;5.80;99.90
11107;DHT22;5607;48.302;14.294;2022-12-07T16:53:58;5.80;99.90
11107;DHT22;5607;48.302;14.294;2022-12-07T16:56:44;5.80;99.90
11107;DHT22;5607;48.302;14.294;2022-12-07T16:59:31;5.80;99.90
11107;DHT22;5607;48.302;14.294;2022-12-07T17:02:17;5.80;99.90
11107;DHT22;5607;48.302;14.294;2022-12-07T17:05:04;5.80;99.90
11107;DHT22;5607;48.302;14.294;2022-12-07T17:07:50;5.90;99.90
11107;DHT22;5607;48.302;14.294;2022-12-07T17:10:37;5.90;99.90
11107;DHT22;5607;48.302;14.294;2022-12-07T17:13:24;5.90;99.90
11107;DHT22;5607;48.302;14.294;2022-12-07T17:16:29;6.00;99.90
11107;DHT22;5607;48.302;14.294;2022-12-07T17:19:17;6.00;99.90
11107;DHT22;5607;48.302;14.294;2022-12-07T17:22:03;6.00;99.90
11107;DHT22;5607;48.302;14.294;2022-12-07T17:24:51;5.90;99.90
11107;DHT22;5607;48.302;14.294;2022-12-07T17:27:37;5.90;99.90
11107;DHT22;5607;48.302;14.294;2022-12-07T17:30:23;5.90;99.90
11107;DHT22;5607;48.302;14.294;2022-12-07T17:33:10;6.00;99.90
11107;DHT22;5607;48.302;14.294;2022-12-07T17:35:56;6.00;99.90
11107;DHT22;5607;48.302;14.294;2022-12-07T17:38:42;6.00;99.90
11107;DHT22;5607;48.302;14.294;2022-12-07T17:41:29;6.10;99.90
11107;DHT22;5607;48.302;14.294;2022-12-07T17:44:33;6.00;99.90
11107;DHT22;5607;48.302;14.294;2022-12-07T17:47:19;6.00;99.90
11107;DHT22;5607;48.302;14.294;2022-12-07T17:50:07;5.90;99.90
11107;DHT22;5607;48.302;14.294;2022-12-07T17:52:53;5.90;99.90
11107;DHT22;5607;48.302;14.294;2022-12-07T17:55:58;5.90;99.90
11107;DHT22;5607;48.302;14.294;2022-12-07T17:58:44;5.80;99.90
11107;DHT22;5607;48.302;14.294;2022-12-07T18:01:31;5.80;99.90
11107;DHT22;5607;48.302;14.294;2022-12-07T18:04:17;5.90;99.90
11107;DHT22;5607;48.302;14.294;2022-12-07T18:07:03;5.90;99.90
11107;DHT22;5607;48.302;14.294;2022-12-07T18:09:51;6.00;99.90
11107;DHT22;5607;48.302;14.294;2022-12-07T18:12:38;5.90;99.90
11107;DHT22;5607;48.302;14.294;2022-12-07T18:15:25;5.90;99.90
11107;DHT22;5607;48.302;14.294;2022-12-07T18:18:11;5.90;99.90
11107;DHT22;5607;48.302;14.294;2022-12-07T18:20:57;5.90;1.00
11107;DHT22;5607;48.302;14.294;2022-12-07T18:23:49;5.80;1.00
11107;DHT22;5607;48.302;14.294;2022-12-07T18:26:36;5.60;1.00
11107;DHT22;5607;48.302;14.294;2022-12-07T18:29:22;5.60;1.00
11107;DHT22;5607;48.302;14.294;2022-12-07T18:32:10;5.60;1.00
11107;DHT22;5607;48.302;14.294;2022-12-07T18:34:56;5.50;1.00
11107;DHT22;5607;48.302;14.294;2022-12-07T18:37:42;5.50;1.00
11107;DHT22;5607;48.302;14.294;2022-12-07T18:40:28;5.40;1.00
11107;DHT22;5607;48.302;14.294;2022-12-07T18:43:15;5.40;1.00
11107;DHT22;5607;48.302;14.294;2022-12-07T18:46:01;5.30;1.00
11107;DHT22;5607;48.302;14.294;2022-12-07T18:48:54;5.40;1.00
11107;DHT22;5607;48.302;14.294;2022-12-07T18:51:42;5.40;1.00
11107;DHT22;5607;48.302;14.294;2022-12-07T18:54:28;5.40;1.00
11107;DHT22;5607;48.302;14.294;2022-12-07T18:57:14;5.40;1.00
11107;DHT22;5607;48.302;14.294;2022-12-07T19:00:01;5.30;1.00
11107;DHT22;5607;48.302;14.294;2022-12-07T19:02:48;5.30;1.00
11107;DHT22;5607;48.302;14.294;2022-12-07T19:05:34;5.20;1.00
11107;DHT22;5607;48.302;14.294;2022-12-07T19:08:21;5.20;1.00
11107;DHT22;5607;48.302;14.294;2022-12-07T19:11:07;5.20;1.00
11107;DHT22;5607;48.302;14.294;2022-12-07T19:14:14;5.20;1.00
11107;DHT22;5607;48.302;14.294;2022-12-07T19:17:01;5.20;1.00
11107;DHT22;5607;48.302;14.294;2022-12-07T19:19:48;5.20;1.00
11107;DHT22;5607;48.302;14.294;2022-12-07T19:22:35;5.30;1.00
11107;DHT22;5607;48.302;14.294;2022-12-07T19:25:21;5.40;1.00
11107;DHT22;5607;48.302;14.294;2022-12-07T19:28:07;5.50;1.00
11107;DHT22;5607;48.302;14.294;2022-12-07T19:30:53;5.50;1.00
11107;DHT22;5607;48.302;14.294;2022-12-07T19:33:40;5.50;1.00
11107;DHT22;5607;48.302;14.294;2022-12-07T19:36:27;5.50;1.00
11107;DHT22;5607;48.302;14.294;2022-12-07T19:39:13;5.50;1.00
11107;DHT22;5607;48.302;14.294;2022-12-07T19:41:59;5.50;1.00
11107;DHT22;5607;48.302;14.294;2022-12-07T19:44:46;5.50;1.00
11107;DHT22;5607;48.302;14.294;2022-12-07T19:47:32;5.50;1.00
11107;DHT22;5607;48.302;14.294;2022-12-07T19:50:18;5.40;1.00
11107;DHT22;5607;48.302;14.294;2022-12-07T19:53:05;5.40;1.00
11107;DHT22;5607;48.302;14.294;2022-12-07T19:55:51;5.40;1.00
11107;DHT22;5607;48.302;14.294;2022-12-07T19:58:37;5.40;1.00
11107;DHT22;5607;48.302;14.294;2022-12-07T20:01:23;5.40;1.00